Time;durP1;ratioP1;P1;durP2;ratioP2;P2;SDS_P1;SDS_P2;PMS_P1;PMS_P2;Temp;Humidity;BMP_temperature;BMP_pressure;BME280_temperature;BME280_humidity;BME280_pressure;Samples;Min_cycle;Max_cycle;Signal;HPM_P1;HPM_P2
2023/11/10 00:03:02;;;;;;;11.40;6.80;;;;;;;;;;103684;1291;544847;-70
2023/11/10 00:06:39;;;;;;;10.10;6.40;;;;;;;;;;104071;1289;545152;-70
2023/11/10 00:10:16;;;;;;;10.00;6.00;;;;;;;;;;103915;1288;545313;-70
2023/11/10 00:13:54;;;;;;;9.60;5.80;;;;;;;;;;103817;1292;544989;-70
2023/11/10 00:17:31;;;;;;;9.10;5.10;;;;;;;;;;103733;1292;544902;-70
2023/11/10 00:21:13;;;;;;;9.30;4.90;;;;;;;;;;103780;1289;545188;-70
2023/11/10 00:24:46;;;;;;;8.10;4.70;;;;;;;;;;103619;1290;544813;-70
2023/11/10 00:28:20;;;;;;;9.40;4.90;;;;;;;;;;103883;1290;544918;-70
2023/11/10 00:32:01;;;;;;;7.90;4.40;;;;;;;;;;103653;1292;544981;-70
2023/11/10 00:35:34;;;;;;;8.40;4.30;;;;;;;;;;103710;1300;544709;-71
2023/11/10 00:39:19;;;;;;;10.10;4.70;;;;;;;;;;103767;1289;544713;-69
2023/11/10 00:42:53;;;;;;;9.30;4.30;;;;;;;;;;103727;1289;544854;-70
2023/11/10 00:46:31;;;;;;;8.90;5.10;;;;;;;;;;104051;1288;545595;-70
2023/11/10 00:50:10;;;;;;;8.60;4.00;;;;;;;;;;103793;1289;544924;-71
2023/11/10 00:53:46;;;;;;;7.60;3.70;;;;;;;;;;103629;1291;546037;-69
2023/11/10 00:57:23;;;;;;;7.00;3.70;;;;;;;;;;103600;1295;544793;-71
2023/11/10 01:01:01;;;;;;;7.20;3.70;;;;;;;;;;103660;1291;545360;-69
2023/11/10 01:04:38;;;;;;;8.10;4.30;;;;;;;;;;103561;1293;544950;-71
2023/11/10 01:08:15;;;;;;;8.90;4.50;;;;;;;;;;103529;1295;544889;-69
2023/11/10 01:11:53;;;;;;;8.50;4.50;;;;;;;;;;103728;1291;545531;-70
2023/11/10 01:15:31;;;;;;;9.30;4.10;;;;;;;;;;103638;1292;544955;-69
2023/11/10 01:19:08;;;;;;;8.70;4.00;;;;;;;;;;103908;1289;545596;-70
2023/11/10 01:22:45;;;;;;;10.60;4.10;;;;;;;;;;104213;1283;544949;-70
2023/11/10 01:26:24;;;;;;;5.60;2.50;;;;;;;;;;103689;1289;544913;-70
2023/11/10 01:30:00;;;;;;;5.20;2.40;;;;;;;;;;103903;1289;544819;-69
2023/11/10 01:33:38;;;;;;;7.00;2.50;;;;;;;;;;103822;1292;544798;-69
2023/11/10 01:37:15;;;;;;;4.70;2.20;;;;;;;;;;103682;1291;545528;-70
2023/11/10 01:40:54;;;;;;;7.50;2.90;;;;;;;;;;103681;1289;544792;-70
2023/11/10 01:44:31;;;;;;;6.10;3.00;;;;;;;;;;103549;1298;544991;-71
2023/11/10 01:48:08;;;;;;;6.60;3.40;;;;;;;;;;104365;1288;545428;-70
2023/11/10 01:51:42;;;;;;;7.30;3.30;;;;;;;;;;103805;1289;544896;-71
2023/11/10 01:55:23;;;;;;;8.30;3.30;;;;;;;;;;103769;1302;544741;-69
2023/11/10 01:59:05;;;;;;;7.40;3.20;;;;;;;;;;103612;1291;545522;-69
2023/11/10 02:02:37;;;;;;;8.00;3.40;;;;;;;;;;103686;1292;545428;-70
2023/11/10 02:06:15;;;;;;;7.50;3.10;;;;;;;;;;103712;1292;544947;-70
2023/11/10 02:09:52;;;;;;;7.30;3.00;;;;;;;;;;104357;1282;545995;-71
2023/11/10 02:13:30;;;;;;;6.20;3.10;;;;;;;;;;103833;1288;544992;-71
2023/11/10 02:17:07;;;;;;;6.60;3.20;;;;;;;;;;103791;1289;545617;-70
2023/11/10 02:20:45;;;;;;;8.20;3.40;;;;;;;;;;104077;1288;545005;-70
2023/11/10 02:24:23;;;;;;;7.40;4.10;;;;;;;;;;104005;1288;544958;-70
2023/11/10 02:28:00;;;;;;;7.60;3.90;;;;;;;;;;103732;1290;545069;-70
2023/11/10 02:31:43;;;;;;;7.80;3.90;;;;;;;;;;103460;1292;549216;-70
2023/11/10 02:35:15;;;;;;;7.80;3.70;;;;;;;;;;103751;1299;544959;-70
2023/11/10 02:38:48;;;;;;;8.20;4.20;;;;;;;;;;103800;1289;544976;-71
2023/11/10 02:42:30;;;;;;;10.80;5.30;;;;;;;;;;104445;1282;544987;-71
2023/11/10 02:46:06;;;;;;;10.80;4.50;;;;;;;;;;103755;1300;546056;-70
2023/11/10 02:49:44;;;;;;;9.60;4.30;;;;;;;;;;103611;1290;545158;-69
2023/11/10 02:53:21;;;;;;;9.10;3.70;;;;;;;;;;103701;1291;545958;-70
2023/11/10 02:56:59;;;;;;;8.50;3.50;;;;;;;;;;103695;1289;545525;-69
2023/11/10 03:00:37;;;;;;;7.40;3.80;;;;;;;;;;104126;1285;545073;-70
2023/11/10 03:04:14;;;;;;;8.60;3.70;;;;;;;;;;103545;1293;546046;-71
2023/11/10 03:07:52;;;;;;;9.60;3.70;;;;;;;;;;103737;1291;545034;-71
2023/11/10 03:11:29;;;;;;;6.70;3.00;;;;;;;;;;103773;1292;545420;-70
2023/11/10 03:15:07;;;;;;;8.30;3.20;;;;;;;;;;103628;1295;546299;-69
2023/11/10 03:18:44;;;;;;;9.40;4.00;;;;;;;;;;103693;1289;545123;-70
2023/11/10 03:22:22;;;;;;;8.50;4.10;;;;;;;;;;103734;1292;545048;-69
2023/11/10 03:25:59;;;;;;;9.30;3.90;;;;;;;;;;104122;1286;544929;-68
2023/11/10 03:29:36;;;;;;;8.00;3.80;;;;;;;;;;103636;1289;545514;-70
2023/11/10 03:33:16;;;;;;;6.90;3.20;;;;;;;;;;103888;1286;544998;-68
2023/11/10 03:36:52;;;;;;;5.70;2.80;;;;;;;;;;103833;1289;546446;-69
2023/11/10 03:40:29;;;;;;;7.30;3.30;;;;;;;;;;103668;1291;544729;-70
2023/11/10 03:44:06;;;;;;;8.20;3.10;;;;;;;;;;103737;1292;545377;-70
2023/11/10 03:47:44;;;;;;;6.50;2.70;;;;;;;;;;103746;1289;545038;-70
2023/11/10 03:51:21;;;;;;;7.00;2.80;;;;;;;;;;103469;1292;545649;-70
2023/11/10 03:54:59;;;;;;;6.50;2.80;;;;;;;;;;103592;1292;544808;-69
2023/11/10 03:58:37;;;;;;;7.20;3.00;;;;;;;;;;103626;1291;544836;-70
2023/11/10 04:02:14;;;;;;;6.70;2.80;;;;;;;;;;103633;1289;545023;-69
2023/11/10 04:05:51;;;;;;;6.70;2.80;;;;;;;;;;103585;1301;545353;-70
2023/11/10 04:09:28;;;;;;;5.90;2.60;;;;;;;;;;103536;1291;545057;-69
2023/11/10 04:13:06;;;;;;;6.00;2.70;;;;;;;;;;103748;1289;545747;-69
2023/11/10 04:16:44;;;;;;;7.90;3.20;;;;;;;;;;103483;1292;544874;-70
2023/11/10 04:20:22;;;;;;;7.20;2.80;;;;;;;;;;103946;1290;546016;-71
2023/11/10 04:23:58;;;;;;;6.20;2.50;;;;;;;;;;103924;1288;546361;-70
2023/11/10 04:27:36;;;;;;;7.60;3.10;;;;;;;;;;103552;1291;544780;-70
2023/11/10 04:31:17;;;;;;;7.30;3.50;;;;;;;;;;103638;1292;545509;-70
2023/11/10 04:34:51;;;;;;;8.90;4.40;;;;;;;;;;104313;1282;545932;-69
2023/11/10 04:38:28;;;;;;;8.00;4.10;;;;;;;;;;103898;1291;544861;-70
2023/11/10 04:42:06;;;;;;;7.80;3.80;;;;;;;;;;103684;1291;545164;-71
2023/11/10 04:45:49;;;;;;;9.50;4.20;;;;;;;;;;103342;1294;547844;-69
2023/11/10 04:49:26;;;;;;;8.70;4.40;;;;;;;;;;103885;1286;547917;-68
2023/11/10 04:52:58;;;;;;;10.10;4.60;;;;;;;;;;103493;1291;544864;-68
2023/11/10 04:56:53;;;;;;;10.20;4.50;;;;;;;;;;103548;1295;545682;-68
2023/11/10 05:00:14;;;;;;;7.80;4.20;;;;;;;;;;103586;1291;545472;-69
2023/11/10 05:03:52;;;;;;;20.50;9.80;;;;;;;;;;103528;1291;545134;-69
2023/11/10 05:07:28;;;;;;;10.40;5.20;;;;;;;;;;103738;1295;544885;-69
2023/11/10 05:11:06;;;;;;;9.00;5.20;;;;;;;;;;103550;1291;544923;-68
2023/11/10 05:14:43;;;;;;;12.00;6.50;;;;;;;;;;103528;1294;545048;-69
2023/11/10 05:18:26;;;;;;;14.00;6.30;;;;;;;;;;103698;1292;544963;-69
2023/11/10 05:21:58;;;;;;;8.10;4.20;;;;;;;;;;103885;1289;545089;-69
2023/11/10 05:25:31;;;;;;;9.90;3.70;;;;;;;;;;103704;1300;545517;-69
2023/11/10 05:29:14;;;;;;;11.00;4.40;;;;;;;;;;104001;1284;545935;-68
2023/11/10 05:32:50;;;;;;;8.40;4.20;;;;;;;;;;103675;1292;544999;-69
2023/11/10 05:36:28;;;;;;;7.80;3.50;;;;;;;;;;103754;1288;545367;-69
2023/11/10 05:40:06;;;;;;;7.20;3.60;;;;;;;;;;103541;1291;544983;-69
2023/11/10 05:43:43;;;;;;;8.20;3.80;;;;;;;;;;103561;1293;545190;-69
2023/11/10 05:47:20;;;;;;;8.60;4.00;;;;;;;;;;103317;1306;544839;-69
2023/11/10 05:50:57;;;;;;;7.80;3.40;;;;;;;;;;103698;1290;545006;-69
2023/11/10 05:54:41;;;;;;;7.50;3.10;;;;;;;;;;103472;1290;548002;-69
2023/11/10 05:58:12;;;;;;;7.10;2.90;;;;;;;;;;103473;1291;544940;-69
2023/11/10 06:01:51;;;;;;;8.80;3.70;;;;;;;;;;104512;1285;545126;-69
2023/11/10 06:05:29;;;;;;;10.10;3.90;;;;;;;;;;103487;1291;544944;-69
2023/11/10 06:09:06;;;;;;;10.80;4.50;;;;;;;;;;103561;1292;545538;-70
2023/11/10 06:12:42;;;;;;;15.30;5.60;;;;;;;;;;103507;1289;544885;-67
2023/11/10 06:16:21;;;;;;;18.50;7.30;;;;;;;;;;103903;1289;544891;-68
2023/11/10 06:19:57;;;;;;;14.30;5.00;;;;;;;;;;103565;1292;544986;-68
2023/11/10 06:23:34;;;;;;;12.70;4.90;;;;;;;;;;103796;1291;546077;-69
2023/11/10 06:27:13;;;;;;;10.90;4.50;;;;;;;;;;103544;1295;544771;-70
2023/11/10 06:30:49;;;;;;;10.70;3.80;;;;;;;;;;103648;1291;544842;-71
2023/11/10 06:34:27;;;;;;;8.50;3.90;;;;;;;;;;103507;1291;544709;-69
2023/11/10 06:38:04;;;;;;;8.80;4.10;;;;;;;;;;103586;1294;545416;-70
2023/11/10 06:41:42;;;;;;;9.40;4.40;;;;;;;;;;103670;1288;545418;-70
2023/11/10 06:45:16;;;;;;;11.10;4.90;;;;;;;;;;103808;1288;544809;-68
2023/11/10 06:48:57;;;;;;;13.10;5.00;;;;;;;;;;103510;1292;546020;-70
2023/11/10 06:52:34;;;;;;;11.70;5.70;;;;;;;;;;103949;1286;545862;-69
2023/11/10 06:56:11;;;;;;;10.40;5.40;;;;;;;;;;103365;1294;546252;-69
2023/11/10 06:59:49;;;;;;;14.00;4.70;;;;;;;;;;104171;1285;544958;-69
2023/11/10 07:03:27;;;;;;;12.30;6.30;;;;;;;;;;103712;1289;544995;-70
2023/11/10 07:07:05;;;;;;;12.20;6.20;;;;;;;;;;103775;1292;545913;-70
2023/11/10 07:10:47;;;;;;;13.40;6.90;;;;;;;;;;103681;1290;545400;-68
2023/11/10 07:14:19;;;;;;;12.70;7.70;;;;;;;;;;103656;1289;545940;-69
2023/11/10 07:17:57;;;;;;;13.20;7.80;;;;;;;;;;103640;1292;544955;-69
2023/11/10 07:21:34;;;;;;;19.70;8.20;;;;;;;;;;103583;1292;544790;-69
2023/11/10 07:25:13;;;;;;;13.80;7.20;;;;;;;;;;103661;1295;545763;-69
2023/11/10 07:28:49;;;;;;;14.20;7.40;;;;;;;;;;103645;1300;544923;-68
2023/11/10 07:32:30;;;;;;;14.30;7.50;;;;;;;;;;103708;1291;544844;-70
2023/11/10 07:36:04;;;;;;;9.40;5.70;;;;;;;;;;103724;1290;545088;-68
2023/11/10 07:39:41;;;;;;;13.90;6.60;;;;;;;;;;103668;1289;544772;-68
2023/11/10 07:43:19;;;;;;;11.40;5.90;;;;;;;;;;103802;1288;545005;-69
2023/11/10 07:46:56;;;;;;;11.70;5.90;;;;;;;;;;103660;1292;544971;-69
2023/11/10 07:50:33;;;;;;;11.00;6.00;;;;;;;;;;104288;1283;545160;-69
2023/11/10 07:54:17;;;;;;;8.40;4.30;;;;;;;;;;103499;1288;547860;-70
2023/11/10 07:57:49;;;;;;;10.50;5.20;;;;;;;;;;104182;1289;545487;-68
2023/11/10 08:01:26;;;;;;;9.90;4.20;;;;;;;;;;103766;1293;544957;-71
2023/11/10 08:05:05;;;;;;;10.50;4.50;;;;;;;;;;103631;1291;544755;-69
2023/11/10 08:08:41;;;;;;;9.00;4.90;;;;;;;;;;103878;1289;545628;-70
2023/11/10 08:12:19;;;;;;;9.00;4.60;;;;;;;;;;103574;1288;545904;-69
2023/11/10 08:15:56;;;;;;;10.20;5.00;;;;;;;;;;103700;1290;545503;-69
2023/11/10 08:19:33;;;;;;;12.10;5.70;;;;;;;;;;103795;1288;545380;-69
2023/11/10 08:23:11;;;;;;;12.40;5.10;;;;;;;;;;103642;1289;545073;-68
2023/11/10 08:26:49;;;;;;;11.60;5.30;;;;;;;;;;103979;1285;544990;-68
2023/11/10 08:30:26;;;;;;;10.10;4.90;;;;;;;;;;103795;1289;544823;-68
2023/11/10 08:34:03;;;;;;;10.30;5.00;;;;;;;;;;103815;1290;544895;-69
2023/11/10 08:37:41;;;;;;;11.80;4.60;;;;;;;;;;103737;1291;545444;-71
2023/11/10 08:41:18;;;;;;;12.60;4.80;;;;;;;;;;103768;1288;545392;-70
2023/11/10 08:44:56;;;;;;;8.90;4.50;;;;;;;;;;103722;1291;544736;-69
2023/11/10 08:48:33;;;;;;;8.70;4.60;;;;;;;;;;103849;1292;544732;-70
2023/11/10 08:52:11;;;;;;;9.10;5.00;;;;;;;;;;103733;1288;545244;-68
2023/11/10 08:55:47;;;;;;;9.70;5.10;;;;;;;;;;104091;1285;545067;-68
2023/11/10 08:59:25;;;;;;;12.60;5.40;;;;;;;;;;103547;1294;545148;-70
2023/11/10 09:03:03;;;;;;;11.50;5.20;;;;;;;;;;103659;1289;546282;-69
2023/11/10 09:06:40;;;;;;;11.30;5.40;;;;;;;;;;104472;1282;545145;-69
2023/11/10 09:10:18;;;;;;;12.30;5.80;;;;;;;;;;103594;1295;545403;-68
2023/11/10 09:13:55;;;;;;;12.50;6.70;;;;;;;;;;103758;1294;545398;-70
2023/11/10 09:17:33;;;;;;;12.20;5.90;;;;;;;;;;103740;1291;545050;-70
2023/11/10 09:21:10;;;;;;;17.80;7.10;;;;;;;;;;103798;1299;544928;-68
2023/11/10 09:24:48;;;;;;;12.60;6.10;;;;;;;;;;104471;1285;545029;-69
2023/11/10 09:28:25;;;;;;;12.00;6.10;;;;;;;;;;103760;1295;544909;-69
2023/11/10 09:32:03;;;;;;;11.20;5.70;;;;;;;;;;104556;1285;546109;-69
2023/11/10 09:35:41;;;;;;;11.80;6.30;;;;;;;;;;103670;1290;545171;-69
2023/11/10 09:39:18;;;;;;;11.90;5.90;;;;;;;;;;103515;1294;545699;-70
2023/11/10 09:42:56;;;;;;;23.10;7.30;;;;;;;;;;103698;1289;545041;-70
2023/11/10 09:46:34;;;;;;;16.60;6.00;;;;;;;;;;103725;1289;544960;-69
2023/11/10 09:50:10;;;;;;;10.90;5.50;;;;;;;;;;103717;1302;546667;-70
2023/11/10 09:53:49;;;;;;;25.30;6.80;;;;;;;;;;103630;1292;545222;-70
2023/11/10 09:57:27;;;;;;;13.60;6.00;;;;;;;;;;103711;1291;544757;-68
2023/11/10 10:01:03;;;;;;;11.30;6.10;;;;;;;;;;103834;1289;545116;-70
2023/11/10 10:04:44;;;;;;;13.70;6.80;;;;;;;;;;103778;1289;545331;-70
2023/11/10 10:08:19;;;;;;;16.00;8.10;;;;;;;;;;103696;1288;544921;-69
2023/11/10 10:11:56;;;;;;;25.80;8.90;;;;;;;;;;103713;1289;545230;-70
2023/11/10 10:15:33;;;;;;;15.30;7.20;;;;;;;;;;103700;1291;544980;-68
2023/11/10 10:19:10;;;;;;;16.30;6.90;;;;;;;;;;103708;1289;544704;-69
2023/11/10 10:22:48;;;;;;;18.30;6.80;;;;;;;;;;104237;1283;545956;-68
2023/11/10 10:26:24;;;;;;;15.20;6.80;;;;;;;;;;103695;1289;544774;-68
2023/11/10 10:30:03;;;;;;;15.10;7.50;;;;;;;;;;103584;1302;546257;-69
2023/11/10 10:33:40;;;;;;;11.10;6.10;;;;;;;;;;103619;1292;545294;-69
2023/11/10 10:37:13;;;;;;;11.20;6.70;;;;;;;;;;103731;1289;545933;-69
2023/11/10 10:40:56;;;;;;;14.70;6.30;;;;;;;;;;103339;1297;545534;-69
2023/11/10 10:44:32;;;;;;;19.90;8.70;;;;;;;;;;103494;1292;545477;-69
2023/11/10 10:48:11;;;;;;;15.30;7.90;;;;;;;;;;103768;1289;545408;-68
2023/11/10 10:51:49;;;;;;;21.90;9.40;;;;;;;;;;103782;1292;545029;-70
2023/11/10 10:55:25;;;;;;;41.60;16.90;;;;;;;;;;104483;1282;544766;-70
2023/11/10 10:59:02;;;;;;;23.60;11.30;;;;;;;;;;103949;1286;545010;-69
2023/11/10 11:02:41;;;;;;;13.20;7.70;;;;;;;;;;103962;1286;544934;-69
2023/11/10 11:06:52;;;;;;;22.60;6.90;;;;;;;;;;103633;1291;545055;-69
2023/11/10 11:10:00;;;;;;;10.80;5.30;;;;;;;;;;103711;1292;544976;-70
2023/11/10 11:13:32;;;;;;;18.10;8.80;;;;;;;;;;103595;1291;544910;-69
2023/11/10 11:17:25;;;;;;;12.20;6.60;;;;;;;;;;103621;1293;546161;-69
2023/11/10 11:20:48;;;;;;;11.10;6.30;;;;;;;;;;103796;1291;545333;-69
2023/11/10 11:24:26;;;;;;;13.00;6.20;;;;;;;;;;104135;1286;544958;-69
2023/11/10 11:28:02;;;;;;;15.10;7.00;;;;;;;;;;103676;1289;545511;-68
2023/11/10 11:31:46;;;;;;;11.00;5.80;;;;;;;;;;103683;1291;544971;-69
2023/11/10 11:35:17;;;;;;;19.30;8.00;;;;;;;;;;103692;1294;545021;-69
2023/11/10 11:38:54;;;;;;;26.40;15.70;;;;;;;;;;103918;1286;544737;-70
2023/11/10 11:42:38;;;;;;;21.70;12.80;;;;;;;;;;103416;1298;545103;-70
2023/11/10 11:46:10;;;;;;;22.40;13.00;;;;;;;;;;103481;1290;545422;-69
2023/11/10 11:49:47;;;;;;;17.30;9.50;;;;;;;;;;103892;1291;545087;-68
2023/11/10 11:53:25;;;;;;;12.80;7.70;;;;;;;;;;103672;1292;545159;-68
2023/11/10 11:57:01;;;;;;;21.70;8.80;;;;;;;;;;103512;1292;544780;-69
2023/11/10 12:00:39;;;;;;;16.40;8.00;;;;;;;;;;103622;1289;545638;-69
2023/11/10 12:04:16;;;;;;;12.40;7.20;;;;;;;;;;104105;1283;544843;-70
2023/11/10 12:07:54;;;;;;;12.90;7.90;;;;;;;;;;103848;1288;544994;-69
2023/11/10 12:11:31;;;;;;;14.50;9.50;;;;;;;;;;104406;1288;545086;-69
2023/11/10 12:15:10;;;;;;;14.10;9.30;;;;;;;;;;103497;1293;545859;-70
2023/11/10 12:18:50;;;;;;;12.70;9.50;;;;;;;;;;103422;1291;545681;-70
2023/11/10 12:22:24;;;;;;;14.40;9.80;;;;;;;;;;103655;1292;545422;-69
2023/11/10 12:26:01;;;;;;;14.40;8.40;;;;;;;;;;103571;1297;545153;-69
2023/11/10 12:29:43;;;;;;;17.30;11.10;;;;;;;;;;103538;1296;545430;-70
2023/11/10 12:33:17;;;;;;;17.70;11.20;;;;;;;;;;103567;1303;544918;-70
2023/11/10 12:36:50;;;;;;;12.70;8.90;;;;;;;;;;103697;1289;545327;-69
2023/11/10 12:40:30;;;;;;;14.30;9.60;;;;;;;;;;103581;1291;544849;-69
2023/11/10 12:44:09;;;;;;;14.00;9.00;;;;;;;;;;103294;1295;546248;-69
2023/11/10 12:47:48;;;;;;;11.80;7.50;;;;;;;;;;103315;1294;545353;-68
2023/11/10 12:51:24;;;;;;;13.90;9.00;;;;;;;;;;103575;1291;545021;-68
2023/11/10 12:54:57;;;;;;;13.30;9.70;;;;;;;;;;103923;1289;544772;-69
2023/11/10 12:58:38;;;;;;;17.80;9.60;;;;;;;;;;103593;1291;545232;-69
2023/11/10 13:02:16;;;;;;;14.90;9.40;;;;;;;;;;104291;1285;544948;-69
2023/11/10 13:05:53;;;;;;;13.60;8.70;;;;;;;;;;103564;1295;545022;-69
2023/11/10 13:09:32;;;;;;;16.10;9.70;;;;;;;;;;103596;1292;545961;-69
2023/11/10 13:13:08;;;;;;;16.90;10.20;;;;;;;;;;103737;1294;544867;-68
2023/11/10 13:16:46;;;;;;;13.90;7.80;;;;;;;;;;103458;1294;545463;-69
2023/11/10 13:20:23;;;;;;;14.20;8.30;;;;;;;;;;103536;1295;545048;-69
2023/11/10 13:24:02;;;;;;;13.80;8.40;;;;;;;;;;103443;1303;545619;-69
2023/11/10 13:27:38;;;;;;;11.70;6.50;;;;;;;;;;103496;1292;544917;-68
2023/11/10 13:31:16;;;;;;;15.60;7.10;;;;;;;;;;103618;1291;544978;-69
2023/11/10 13:34:53;;;;;;;11.40;5.40;;;;;;;;;;103651;1294;544956;-69
2023/11/10 13:38:31;;;;;;;10.20;5.60;;;;;;;;;;103619;1291;545028;-69
2023/11/10 13:42:10;;;;;;;21.40;7.40;;;;;;;;;;103851;1289;545025;-69
2023/11/10 13:45:45;;;;;;;10.60;5.80;;;;;;;;;;103476;1297;545113;-68
2023/11/10 13:49:19;;;;;;;25.40;6.70;;;;;;;;;;103809;1289;544880;-70
2023/11/10 13:53:00;;;;;;;9.50;5.40;;;;;;;;;;103596;1291;544967;-67
2023/11/10 13:56:39;;;;;;;12.80;6.20;;;;;;;;;;103560;1289;545051;-68
2023/11/10 14:00:17;;;;;;;9.40;5.40;;;;;;;;;;103741;1289;545608;-68
2023/11/10 14:03:52;;;;;;;11.70;5.40;;;;;;;;;;103414;1291;546281;-69
2023/11/10 14:07:31;;;;;;;10.40;5.10;;;;;;;;;;103979;1286;544764;-70
2023/11/10 14:11:08;;;;;;;9.20;5.00;;;;;;;;;;103546;1292;544923;-70
2023/11/10 14:14:45;;;;;;;11.00;5.20;;;;;;;;;;103790;1292;546702;-68
2023/11/10 14:18:23;;;;;;;10.20;5.30;;;;;;;;;;103565;1290;545448;-67
2023/11/10 14:22:00;;;;;;;13.20;5.70;;;;;;;;;;104208;1282;545819;-70
2023/11/10 14:25:37;;;;;;;11.50;6.00;;;;;;;;;;103707;1292;545252;-66
2023/11/10 14:29:15;;;;;;;12.60;6.00;;;;;;;;;;103553;1291;544767;-67
2023/11/10 14:32:53;;;;;;;12.70;7.20;;;;;;;;;;103712;1292;544985;-66
2023/11/10 14:36:30;;;;;;;14.40;7.10;;;;;;;;;;103801;1289;546601;-67
2023/11/10 14:40:16;;;;;;;13.20;6.40;;;;;;;;;;103504;1292;544836;-68
2023/11/10 14:43:51;;;;;;;14.30;7.10;;;;;;;;;;103423;1294;545086;-68
2023/11/10 14:47:25;;;;;;;14.40;6.50;;;;;;;;;;103521;1293;545117;-69
2023/11/10 14:51:00;;;;;;;14.70;7.50;;;;;;;;;;103542;1290;544604;-67
2023/11/10 14:54:44;;;;;;;18.00;8.90;;;;;;;;;;103570;1288;547050;-68
2023/11/10 14:58:14;;;;;;;27.90;13.30;;;;;;;;;;103772;1289;544972;-69
2023/11/10 15:01:52;;;;;;;26.80;13.00;;;;;;;;;;103469;1291;545335;-69
2023/11/10 15:05:33;;;;;;;16.60;9.10;;;;;;;;;;104303;1288;545107;-69
2023/11/10 15:09:07;;;;;;;19.60;8.40;;;;;;;;;;103548;1292;544927;-68
2023/11/10 15:12:44;;;;;;;17.10;8.20;;;;;;;;;;103853;1288;546210;-68
2023/11/10 15:16:21;;;;;;;15.00;8.20;;;;;;;;;;103527;1294;545056;-69
2023/11/10 15:19:59;;;;;;;12.30;7.30;;;;;;;;;;103707;1289;544990;-68
2023/11/10 15:23:37;;;;;;;14.70;8.30;;;;;;;;;;103588;1291;545099;-67
2023/11/10 15:27:16;;;;;;;14.80;9.00;;;;;;;;;;103520;1289;545154;-68
2023/11/10 15:30:52;;;;;;;12.50;7.40;;;;;;;;;;103468;1295;545012;-69
2023/11/10 15:34:29;;;;;;;12.50;6.70;;;;;;;;;;103775;1289;545334;-68
2023/11/10 15:38:08;;;;;;;13.10;6.30;;;;;;;;;;103768;1292;545466;-67
2023/11/10 15:41:44;;;;;;;11.60;5.40;;;;;;;;;;103528;1291;544949;-68
2023/11/10 15:45:21;;;;;;;11.40;5.90;;;;;;;;;;103608;1290;545750;-68
2023/11/10 15:48:59;;;;;;;11.30;6.20;;;;;;;;;;103522;1294;544973;-68
2023/11/10 15:52:36;;;;;;;11.00;6.10;;;;;;;;;;103438;1291;544921;-69
2023/11/10 15:56:13;;;;;;;11.60;6.00;;;;;;;;;;104285;1287;544729;-68
2023/11/10 15:59:47;;;;;;;12.70;7.70;;;;;;;;;;103623;1292;544844;-69
2023/11/10 16:03:29;;;;;;;13.50;7.70;;;;;;;;;;103566;1291;544807;-69
2023/11/10 16:07:06;;;;;;;12.80;7.10;;;;;;;;;;103525;1293;545670;-69
2023/11/10 16:10:44;;;;;;;17.20;8.80;;;;;;;;;;103512;1291;544974;-69
2023/11/10 16:14:21;;;;;;;16.40;9.30;;;;;;;;;;103561;1291;544793;-70
2023/11/10 16:18:00;;;;;;;15.40;8.60;;;;;;;;;;103461;1303;545575;-69
2023/11/10 16:21:36;;;;;;;16.10;8.30;;;;;;;;;;103717;1292;544820;-67
2023/11/10 16:25:14;;;;;;;15.20;8.50;;;;;;;;;;103228;1293;544804;-68
2023/11/10 16:28:51;;;;;;;14.20;8.40;;;;;;;;;;103533;1294;545328;-68
2023/11/10 16:32:29;;;;;;;14.90;8.50;;;;;;;;;;103614;1291;545671;-68
2023/11/10 16:36:06;;;;;;;19.10;11.60;;;;;;;;;;103462;1294;545953;-69
2023/11/10 16:39:43;;;;;;;25.50;14.80;;;;;;;;;;103545;1292;544900;-70
2023/11/10 16:43:21;;;;;;;37.50;18.40;;;;;;;;;;103608;1291;545679;-69
2023/11/10 16:46:58;;;;;;;40.10;19.40;;;;;;;;;;103477;1295;545372;-70
2023/11/10 16:50:36;;;;;;;32.80;15.10;;;;;;;;;;103627;1292;545757;-69
2023/11/10 16:54:13;;;;;;;24.60;11.90;;;;;;;;;;103823;1288;544913;-70
2023/11/10 16:57:51;;;;;;;12.90;7.80;;;;;;;;;;103488;1294;545056;-69
2023/11/10 17:01:30;;;;;;;13.30;6.90;;;;;;;;;;103426;1291;545123;-69
2023/11/10 17:05:03;;;;;;;14.30;6.80;;;;;;;;;;104231;1283;545764;-69
2023/11/10 17:08:43;;;;;;;18.70;8.20;;;;;;;;;;103454;1293;545188;-67
2023/11/10 17:12:20;;;;;;;16.40;9.30;;;;;;;;;;103437;1292;545618;-69
2023/11/10 17:15:59;;;;;;;15.60;8.90;;;;;;;;;;103298;1294;546079;-68
2023/11/10 17:19:36;;;;;;;16.10;9.30;;;;;;;;;;104002;1284;544964;-69
2023/11/10 17:23:14;;;;;;;17.50;10.60;;;;;;;;;;103772;1291;545561;-70
2023/11/10 17:26:53;;;;;;;19.00;11.40;;;;;;;;;;103601;1294;545613;-70
2023/11/10 17:30:24;;;;;;;18.80;10.90;;;;;;;;;;103674;1288;545846;-70
2023/11/10 17:34:24;;;;;;;16.70;9.80;;;;;;;;;;103744;1294;548005;-70
2023/11/10 17:37:42;;;;;;;16.90;10.90;;;;;;;;;;103620;1295;545043;-68
2023/11/10 17:41:20;;;;;;;22.70;14.70;;;;;;;;;;103511;1291;545546;-69
2023/11/10 17:44:57;;;;;;;45.20;31.30;;;;;;;;;;103372;1293;545513;-68
2023/11/10 17:48:35;;;;;;;48.80;28.90;;;;;;;;;;103577;1292;544912;-68
2023/11/10 17:52:13;;;;;;;45.40;25.70;;;;;;;;;;103633;1292;544941;-68
2023/11/10 17:55:53;;;;;;;80.70;42.20;;;;;;;;;;104028;1289;545476;-70
2023/11/10 17:59:28;;;;;;;92.20;50.60;;;;;;;;;;103497;1294;544670;-69
2023/11/10 18:03:06;;;;;;;77.50;42.60;;;;;;;;;;103468;1290;546419;-69
2023/11/10 18:06:42;;;;;;;70.70;38.30;;;;;;;;;;103767;1288;544991;-68
2023/11/10 18:10:21;;;;;;;58.10;32.60;;;;;;;;;;103544;1292;544811;-69
2023/11/10 18:13:57;;;;;;;41.90;23.10;;;;;;;;;;103504;1292;545014;-69
2023/11/10 18:17:35;;;;;;;39.60;21.10;;;;;;;;;;103555;1291;545192;-69
2023/11/10 18:21:12;;;;;;;38.00;19.10;;;;;;;;;;103546;1292;545020;-69
2023/11/10 18:24:53;;;;;;;46.90;24.50;;;;;;;;;;103676;1292;545196;-69
2023/11/10 18:28:27;;;;;;;48.70;31.00;;;;;;;;;;103530;1295;545505;-69
2023/11/10 18:32:08;;;;;;;50.50;32.10;;;;;;;;;;103564;1289;544812;-68
2023/11/10 18:35:43;;;;;;;56.70;33.00;;;;;;;;;;103576;1289;544835;-68
2023/11/10 18:39:25;;;;;;;55.50;34.70;;;;;;;;;;103416;1288;548403;-68
2023/11/10 18:42:58;;;;;;;51.00;33.30;;;;;;;;;;103522;1292;544724;-69
2023/11/10 18:46:34;;;;;;;43.70;28.80;;;;;;;;;;103562;1291;544973;-69
2023/11/10 18:50:13;;;;;;;44.70;27.70;;;;;;;;;;103527;1292;545529;-69
2023/11/10 18:53:45;;;;;;;46.40;30.20;;;;;;;;;;103636;1296;544790;-69
2023/11/10 18:57:47;;;;;;;44.20;29.80;;;;;;;;;;103460;1293;548171;-67
2023/11/10 19:01:05;;;;;;;41.00;27.40;;;;;;;;;;103660;1291;545693;-69
2023/11/10 19:04:42;;;;;;;49.20;33.70;;;;;;;;;;103651;1290;545089;-68
2023/11/10 19:08:19;;;;;;;102.20;58.40;;;;;;;;;;103889;1289;545520;-69
2023/11/10 19:11:58;;;;;;;119.30;65.90;;;;;;;;;;103521;1291;544740;-69
2023/11/10 19:15:34;;;;;;;112.70;60.60;;;;;;;;;;103707;1291;544951;-70
2023/11/10 19:19:12;;;;;;;95.60;52.50;;;;;;;;;;103639;1292;544966;-69
2023/11/10 19:22:50;;;;;;;161.10;81.90;;;;;;;;;;103575;1291;544756;-68
2023/11/10 19:26:27;;;;;;;155.70;81.20;;;;;;;;;;103582;1288;544952;-68
2023/11/10 19:30:06;;;;;;;142.20;73.00;;;;;;;;;;103548;1291;544993;-69
2023/11/10 19:33:42;;;;;;;133.40;69.10;;;;;;;;;;103517;1292;545241;-69
2023/11/10 19:37:19;;;;;;;124.00;63.80;;;;;;;;;;103708;1292;544722;-68
2023/11/10 19:40:56;;;;;;;102.60;53.00;;;;;;;;;;103527;1291;545345;-68
2023/11/10 19:44:33;;;;;;;56.30;31.80;;;;;;;;;;103692;1293;545044;-69
2023/11/10 19:48:11;;;;;;;67.80;38.60;;;;;;;;;;103597;1292;544899;-69
2023/11/10 19:51:52;;;;;;;73.60;40.50;;;;;;;;;;103574;1292;545291;-68
2023/11/10 19:55:35;;;;;;;266.00;128.80;;;;;;;;;;103757;1289;545020;-68
2023/11/10 19:59:13;;;;;;;139.70;71.50;;;;;;;;;;103598;1295;548028;-69
2023/11/10 20:02:47;;;;;;;82.20;47.70;;;;;;;;;;103552;1290;548623;-68
2023/11/10 20:06:40;;;;;;;115.10;63.00;;;;;;;;;;104091;1289;548282;-70
2023/11/10 20:10:12;;;;;;;46.80;27.40;;;;;;;;;;103557;1289;547968;-73
2023/11/10 20:13:33;;;;;;;37.80;22.80;;;;;;;;;;103643;1291;544910;-68
2023/11/10 20:17:11;;;;;;;28.70;18.40;;;;;;;;;;103630;1291;544799;-69
2023/11/10 20:20:48;;;;;;;24.30;17.60;;;;;;;;;;104021;1286;546635;-68
2023/11/10 20:24:29;;;;;;;27.60;17.60;;;;;;;;;;104316;1282;544787;-68
2023/11/10 20:28:04;;;;;;;24.60;15.30;;;;;;;;;;103770;1292;544925;-69
2023/11/10 20:31:41;;;;;;;22.80;14.80;;;;;;;;;;103483;1291;545965;-70
2023/11/10 20:35:19;;;;;;;24.70;15.70;;;;;;;;;;104185;1288;544890;-69
2023/11/10 20:38:52;;;;;;;28.90;18.80;;;;;;;;;;103638;1295;545036;-70
2023/11/10 20:42:39;;;;;;;27.00;18.10;;;;;;;;;;103462;1293;548146;-69
2023/11/10 20:46:29;;;;;;;22.50;16.20;;;;;;;;;;103624;1292;548106;-71
2023/11/10 20:49:48;;;;;;;25.70;17.40;;;;;;;;;;103547;1290;544856;-70